Time;durP1;ratioP1;P1;durP2;ratioP2;P2;SDS_P1;SDS_P2;PMS_P1;PMS_P2;Temp;Humidity;BMP_temperature;BMP_pressure;BME280_temperature;BME280_humidity;BME280_pressure;Samples;Min_cycle;Max_cycle;Signal;HPM_P1;HPM_P2
2023/07/22 00:00:05;;;;;;;5.65;1.80;;;13.20;99.90;;;;;;5085992;28;20279;-86
2023/07/22 00:02:38;;;;;;;1.75;1.08;;;13.10;99.90;;;;;;5094949;28;20289;-87
2023/07/22 00:05:10;;;;;;;3.90;1.30;;;13.00;99.90;;;;;;5089825;28;20223;-87
2023/07/22 00:07:41;;;;;;;3.40;1.45;;;13.10;99.90;;;;;;5095711;28;20199;-85
2023/07/22 00:10:14;;;;;;;2.40;1.45;;;13.30;99.90;;;;;;5095745;28;20244;-87
2023/07/22 00:12:44;;;;;;;5.57;1.38;;;13.40;99.90;;;;;;5094729;28;20568;-87
2023/07/22 00:15:15;;;;;;;2.55;1.13;;;13.40;99.90;;;;;;5095059;28;20201;-86
2023/07/22 00:17:48;;;;;;;2.90;1.25;;;13.50;99.90;;;;;;5074987;28;20196;-86
2023/07/22 00:20:20;;;;;;;2.25;1.08;;;13.60;99.90;;;;;;5073330;28;20199;-87
2023/07/22 00:22:50;;;;;;;4.68;1.45;;;13.70;99.90;;;;;;5073523;28;20196;-87
2023/07/22 00:25:22;;;;;;;3.28;1.20;;;13.80;99.90;;;;;;5073434;28;20202;-86
2023/07/22 00:27:53;;;;;;;3.28;0.93;;;13.90;99.90;;;;;;5082176;28;20271;-86
2023/07/22 00:30:25;;;;;;;6.28;1.42;;;13.90;99.90;;;;;;5072839;28;20203;-88
2023/07/22 00:32:59;;;;;;;3.10;1.20;;;14.00;99.90;;;;;;5072845;28;20204;-87
2023/07/22 00:35:31;;;;;;;3.17;1.15;;;14.20;99.90;;;;;;5072351;28;20208;-85
2023/07/22 00:38:03;;;;;;;2.05;0.80;;;14.30;99.90;;;;;;5072377;28;20192;-86
2023/07/22 00:40:35;;;;;;;3.58;1.10;;;14.50;99.90;;;;;;5072150;28;20196;-86
2023/07/22 00:43:07;;;;;;;2.78;1.10;;;14.60;99.90;;;;;;5073106;28;20203;-86
2023/07/22 00:45:38;;;;;;;1.95;1.13;;;14.50;99.90;;;;;;5072840;28;20180;-86
2023/07/22 00:48:12;;;;;;;2.47;1.17;;;14.60;99.90;;;;;;5072650;28;20698;-87
2023/07/22 00:50:43;;;;;;;3.85;1.50;;;14.70;99.90;;;;;;5072983;28;20199;-86
2023/07/22 00:53:14;;;;;;;4.63;1.45;;;14.70;99.90;;;;;;5072107;28;20203;-86
2023/07/22 00:55:46;;;;;;;2.22;1.10;;;14.90;99.90;;;;;;5072254;28;20224;-86
2023/07/22 00:58:17;;;;;;;2.60;1.15;;;14.90;99.90;;;;;;5071707;28;20681;-87
2023/07/22 01:00:48;;;;;;;3.60;1.15;;;15.00;99.90;;;;;;5071533;28;20216;-87
2023/07/22 01:03:21;;;;;;;3.47;1.10;;;15.00;99.90;;;;;;5072070;28;20303;-86
2023/07/22 01:05:53;;;;;;;3.30;0.95;;;15.20;99.90;;;;;;5071653;28;20195;-86
2023/07/22 01:08:24;;;;;;;3.10;1.20;;;15.40;99.90;;;;;;5087035;28;20689;-86
2023/07/22 01:10:55;;;;;;;6.97;1.52;;;15.40;99.90;;;;;;5092171;28;20206;-86
2023/07/22 01:13:26;;;;;;;2.10;0.90;;;15.40;99.90;;;;;;5092123;28;20283;-86
2023/07/22 01:15:57;;;;;;;3.67;1.17;;;15.30;99.90;;;;;;5083552;28;20643;-85
2023/07/22 01:18:30;;;;;;;4.45;1.30;;;15.20;99.90;;;;;;5071459;28;20203;-85
2023/07/22 01:21:01;;;;;;;3.90;1.50;;;15.30;99.90;;;;;;5084200;28;20593;-86
2023/07/22 01:23:33;;;;;;;3.22;1.20;;;15.50;99.90;;;;;;5092618;28;20222;-86
2023/07/22 01:26:05;;;;;;;5.38;1.30;;;15.60;99.90;;;;;;5074080;28;20199;-86
2023/07/22 01:28:38;;;;;;;3.17;0.98;;;15.60;99.90;;;;;;5094514;28;20694;-83
2023/07/22 01:31:09;;;;;;;3.70;1.02;;;15.70;99.90;;;;;;5086770;28;20563;-83
2023/07/22 01:33:40;;;;;;;2.42;1.10;;;15.80;99.90;;;;;;5086029;28;20212;-83
2023/07/22 01:36:11;;;;;;;3.17;1.20;;;15.90;99.90;;;;;;5091366;28;20172;-85
2023/07/22 01:38:43;;;;;;;2.50;1.13;;;16.00;99.90;;;;;;5091132;28;20200;-85
2023/07/22 01:41:14;;;;;;;4.03;1.30;;;16.10;99.90;;;;;;5090601;28;20310;-85
2023/07/22 01:43:45;;;;;;;7.05;1.15;;;16.20;99.90;;;;;;5095289;28;20195;-86
2023/07/22 01:46:16;;;;;;;2.72;1.17;;;16.20;99.90;;;;;;5094276;28;20682;-85
2023/07/22 01:48:47;;;;;;;4.30;1.23;;;16.30;99.90;;;;;;5094268;28;20246;-86
2023/07/22 01:51:18;;;;;;;4.63;0.93;;;16.30;99.90;;;;;;5080091;28;20215;-86
2023/07/22 01:53:51;;;;;;;3.20;1.20;;;16.30;99.90;;;;;;5073377;28;20228;-87
2023/07/22 01:56:22;;;;;;;2.95;1.10;;;16.20;99.90;;;;;;5073687;28;20195;-88
2023/07/22 01:58:53;;;;;;;7.43;2.13;;;16.30;99.90;;;;;;5084924;28;20200;-87
2023/07/22 02:01:24;;;;;;;1.88;0.90;;;16.40;99.90;;;;;;5089446;28;20237;-87
2023/07/22 02:03:55;;;;;;;3.53;1.20;;;16.40;99.90;;;;;;5072985;28;20261;-86
2023/07/22 02:06:26;;;;;;;5.25;1.80;;;16.60;99.90;;;;;;5076523;28;20200;-87
2023/07/22 02:09:00;;;;;;;7.60;2.00;;;16.60;99.90;;;;;;5077938;28;20287;-86
2023/07/22 02:11:31;;;;;;;4.40;1.02;;;16.80;99.90;;;;;;5075394;28;20203;-86
2023/07/22 02:14:02;;;;;;;2.50;1.08;;;16.80;99.90;;;;;;5072421;28;20200;-86
2023/07/22 02:16:33;;;;;;;4.53;1.77;;;16.90;99.90;;;;;;5073285;28;20690;-87
2023/07/22 02:19:03;;;;;;;3.55;1.15;;;17.00;99.90;;;;;;5079144;28;20280;-85
2023/07/22 02:21:34;;;;;;;2.70;1.20;;;17.00;99.90;;;;;;5093767;28;20218;-86
2023/07/22 02:24:08;;;;;;;2.95;1.40;;;16.90;99.90;;;;;;5090655;28;20213;-87
2023/07/22 02:26:41;;;;;;;4.65;1.00;;;17.00;99.90;;;;;;5073414;28;20211;-86
2023/07/22 02:29:13;;;;;;;2.55;0.90;;;17.10;99.90;;;;;;5082743;28;20218;-85
2023/07/22 02:31:44;;;;;;;5.07;1.00;;;17.20;99.90;;;;;;5085483;28;20223;-87
2023/07/22 02:34:16;;;;;;;3.67;1.00;;;17.30;99.90;;;;;;5082613;28;20199;-86
2023/07/22 02:36:47;;;;;;;3.70;1.00;;;17.30;99.90;;;;;;5092101;28;20195;-88
2023/07/22 02:39:19;;;;;;;2.25;0.93;;;17.50;99.90;;;;;;5077844;28;20214;-87
2023/07/22 02:41:50;;;;;;;8.05;1.10;;;17.60;99.90;;;;;;5072411;28;20302;-87
2023/07/22 02:44:21;;;;;;;1.70;0.90;;;17.60;99.90;;;;;;5079306;28;20185;-84
2023/07/22 02:46:52;;;;;;;2.65;0.95;;;17.60;99.90;;;;;;5072199;28;20212;-86
2023/07/22 02:49:23;;;;;;;2.90;0.90;;;17.50;99.90;;;;;;5071422;28;20234;-82
2023/07/22 02:51:54;;;;;;;2.90;0.90;;;17.50;99.90;;;;;;5075975;28;20211;-86
2023/07/22 02:54:27;;;;;;;2.55;1.23;;;17.50;99.90;;;;;;5084864;28;20227;-85
2023/07/22 02:56:58;;;;;;;4.35;1.00;;;17.30;99.90;;;;;;5083661;28;20195;-86
2023/07/22 02:59:28;;;;;;;1.90;0.85;;;17.30;99.90;;;;;;5090689;28;20220;-86
2023/07/22 03:02:01;;;;;;;2.90;1.60;;;17.20;99.90;;;;;;5077150;28;20604;-89
2023/07/22 03:04:33;;;;;;;4.15;1.40;;;17.00;99.90;;;;;;5074142;28;20676;-87
2023/07/22 03:07:06;;;;;;;3.28;1.30;;;17.00;99.90;;;;;;5072461;28;20196;-88
2023/07/22 03:09:39;;;;;;;3.22;1.23;;;17.00;99.90;;;;;;5071406;28;20208;-86
2023/07/22 03:12:10;;;;;;;2.08;0.98;;;17.20;99.90;;;;;;5071437;28;20196;-86
2023/07/22 03:14:41;;;;;;;2.35;1.30;;;17.40;99.90;;;;;;5070834;28;20200;-87
2023/07/22 03:17:14;;;;;;;2.83;0.90;;;17.50;99.90;;;;;;5070820;28;20574;-87
2023/07/22 03:19:45;;;;;;;4.85;1.17;;;17.60;99.90;;;;;;5071429;28;20286;-87
2023/07/22 03:22:17;;;;;;;2.30;1.50;;;17.70;99.90;;;;;;5073444;28;20228;-87
2023/07/22 03:24:50;;;;;;;2.45;1.70;;;17.70;99.90;;;;;;5076772;28;20215;-88
2023/07/22 03:27:21;;;;;;;2.88;0.90;;;17.90;99.90;;;;;;5086625;28;20191;-87
2023/07/22 03:29:52;;;;;;;3.08;0.88;;;18.00;99.90;;;;;;5092885;28;20673;-87
2023/07/22 03:32:23;;;;;;;6.60;1.30;;;18.00;99.90;;;;;;5094577;28;20195;-86
2023/07/22 03:34:54;;;;;;;2.50;1.02;;;18.10;99.90;;;;;;5093815;28;20205;-84
2023/07/22 03:37:26;;;;;;;1.67;1.20;;;18.10;99.90;;;;;;5094373;28;20563;-86
2023/07/22 03:39:58;;;;;;;2.90;1.23;;;18.10;99.90;;;;;;5087387;28;20211;-86
2023/07/22 03:42:29;;;;;;;0.82;0.70;;;18.10;99.90;;;;;;5081128;28;20219;-86
2023/07/22 03:45:00;;;;;;;1.60;0.80;;;18.00;99.90;;;;;;5081198;28;20203;-87
2023/07/22 03:47:31;;;;;;;1.65;0.88;;;18.10;99.90;;;;;;5073703;28;20204;-86
2023/07/22 03:50:02;;;;;;;1.98;0.80;;;18.10;99.90;;;;;;5083250;28;20199;-86
2023/07/22 03:52:33;;;;;;;1.38;0.80;;;18.00;99.90;;;;;;5108190;28;20203;-86
2023/07/22 03:55:08;;;;;;;1.40;0.80;;;18.00;99.90;;;;;;5113641;28;20669;-86
2023/07/22 03:57:39;;;;;;;1.45;1.00;;;18.00;99.90;;;;;;5080549;28;20218;-85
2023/07/22 04:00:11;;;;;;;1.42;1.10;;;18.00;99.90;;;;;;5093094;28;20218;-85
2023/07/22 04:02:42;;;;;;;1.25;0.95;;;17.90;99.90;;;;;;5101385;28;20222;-84
2023/07/22 04:05:14;;;;;;;3.28;1.02;;;17.80;99.90;;;;;;5109386;28;20202;-83
2023/07/22 04:07:46;;;;;;;4.25;1.70;;;17.80;99.90;;;;;;5102943;28;20199;-85
2023/07/22 04:10:20;;;;;;;2.75;1.40;;;17.70;99.90;;;;;;5097399;28;20203;-85
2023/07/22 04:12:53;;;;;;;2.72;1.30;;;17.50;99.90;;;;;;5089440;28;20204;-84
2023/07/22 04:15:24;;;;;;;5.97;1.58;;;17.50;99.90;;;;;;5079197;28;20192;-85
2023/07/22 04:17:55;;;;;;;1.80;1.23;;;17.40;99.90;;;;;;5088061;28;20573;-85
2023/07/22 04:20:26;;;;;;;1.98;1.38;;;17.40;99.90;;;;;;5081221;28;20196;-84
2023/07/22 04:22:56;;;;;;;2.05;1.08;;;17.40;99.90;;;;;;5072689;28;20694;-84
2023/07/22 04:25:32;;;;;;;2.95;1.25;;;17.50;99.90;;;;;;5111420;28;20194;-83
2023/07/22 04:28:02;;;;;;;3.05;1.40;;;17.40;99.90;;;;;;5092590;28;20217;-84
2023/07/22 04:30:33;;;;;;;3.38;1.35;;;17.50;99.90;;;;;;5086765;28;20463;-85
2023/07/22 04:33:05;;;;;;;3.90;1.02;;;17.40;99.90;;;;;;5087004;28;20203;-85
2023/07/22 04:35:36;;;;;;;2.65;1.20;;;17.30;99.90;;;;;;5086954;28;20262;-83
2023/07/22 04:38:07;;;;;;;3.53;1.17;;;17.30;99.90;;;;;;5093460;28;20199;-84
2023/07/22 04:40:39;;;;;;;2.05;1.02;;;17.30;99.90;;;;;;5082974;28;20202;-83
2023/07/22 04:43:14;;;;;;;3.17;1.58;;;17.20;99.90;;;;;;5105415;28;20755;-84
2023/07/22 04:45:47;;;;;;;2.83;1.45;;;17.30;99.90;;;;;;5097820;28;20680;-85
2023/07/22 04:48:19;;;;;;;4.22;1.77;;;17.10;99.90;;;;;;5089176;28;20196;-84
2023/07/22 04:50:49;;;;;;;2.75;1.48;;;17.20;99.90;;;;;;5092105;28;20205;-84
2023/07/22 04:53:21;;;;;;;1.83;1.30;;;17.20;99.90;;;;;;5092386;28;20203;-83
2023/07/22 04:55:55;;;;;;;2.60;1.20;;;17.20;99.90;;;;;;5087914;28;20238;-83
2023/07/22 04:58:26;;;;;;;1.95;1.27;;;17.20;99.90;;;;;;5086778;28;20266;-83
2023/07/22 05:00:57;;;;;;;3.33;1.20;;;17.20;99.90;;;;;;5081481;28;20226;-83
2023/07/22 05:03:28;;;;;;;2.67;1.23;;;17.10;99.90;;;;;;5081356;28;20219;-84
2023/07/22 05:05:59;;;;;;;4.63;1.38;;;17.00;99.90;;;;;;5080202;28;20200;-83
2023/07/22 05:08:30;;;;;;;1.95;1.20;;;17.00;99.90;;;;;;5071655;28;20192;-83
2023/07/22 05:11:04;;;;;;;5.22;2.63;;;16.80;99.90;;;;;;5081537;28;20210;-84
2023/07/22 05:13:34;;;;;;;2.95;2.08;;;16.80;99.90;;;;;;5093929;28;20290;-84
2023/07/22 05:16:05;;;;;;;2.13;1.63;;;16.80;99.90;;;;;;5093753;28;20201;-83
2023/07/22 05:18:36;;;;;;;2.08;1.05;;;16.80;99.90;;;;;;5092070;28;20198;-83
2023/07/22 05:21:07;;;;;;;2.55;1.00;;;16.80;99.90;;;;;;5086786;28;20305;-84
2023/07/22 05:23:38;;;;;;;3.95;2.08;;;17.00;99.90;;;;;;5084907;28;20237;-84
2023/07/22 05:26:11;;;;;;;2.85;1.92;;;17.00;99.90;;;;;;5075806;28;20199;-84
2023/07/22 05:28:42;;;;;;;2.58;1.42;;;17.00;99.90;;;;;;5092132;28;20203;-84
2023/07/22 05:31:12;;;;;;;1.67;1.00;;;17.00;99.90;;;;;;5079982;28;20192;-84
2023/07/22 05:33:43;;;;;;;3.88;3.10;;;17.00;99.90;;;;;;5089296;28;20221;-84
2023/07/22 05:36:14;;;;;;;1.73;1.00;;;17.00;99.90;;;;;;5086845;28;20267;-84
2023/07/22 05:38:45;;;;;;;2.13;0.85;;;17.00;99.90;;;;;;5088833;28;20207;-83
2023/07/22 05:41:17;;;;;;;2.45;1.30;;;16.80;99.90;;;;;;5070195;28;20200;-84
2023/07/22 05:43:48;;;;;;;1.25;0.75;;;16.80;99.90;;;;;;5071026;28;20223;-82
2023/07/22 05:46:19;;;;;;;1.30;0.90;;;16.70;99.90;;;;;;5069554;28;20192;-83
2023/07/22 05:48:50;;;;;;;1.73;1.08;;;16.70;99.90;;;;;;5079378;28;20192;-84
2023/07/22 05:51:21;;;;;;;1.30;1.00;;;16.70;99.90;;;;;;5090925;28;20191;-84
2023/07/22 05:53:53;;;;;;;4.47;1.17;;;16.70;99.90;;;;;;5091650;28;20231;-83
2023/07/22 05:56:25;;;;;;;2.10;1.00;;;16.80;99.90;;;;;;5090195;28;20195;-83
2023/07/22 05:58:56;;;;;;;2.10;1.25;;;16.80;99.90;;;;;;5090990;28;20274;-83
2023/07/22 06:01:28;;;;;;;2.05;1.83;;;16.80;99.90;;;;;;5079832;28;20294;-83
2023/07/22 06:03:58;;;;;;;2.47;1.05;;;16.90;99.90;;;;;;5083169;28;20223;-84
2023/07/22 06:06:29;;;;;;;2.00;0.90;;;16.90;99.90;;;;;;5091225;28;20206;-84
2023/07/22 06:09:00;;;;;;;3.13;1.10;;;16.90;99.90;;;;;;5089841;28;20202;-83
2023/07/22 06:11:33;;;;;;;1.10;1.00;;;17.00;99.90;;;;;;5075197;28;20188;-82
2023/07/22 06:14:04;;;;;;;2.65;1.35;;;17.00;99.90;;;;;;5082764;28;20744;-83
2023/07/22 06:16:34;;;;;;;1.20;1.02;;;17.00;99.90;;;;;;5076928;28;20596;-82
2023/07/22 06:19:06;;;;;;;2.15;1.02;;;17.10;99.90;;;;;;5082274;28;20220;-82
2023/07/22 06:21:36;;;;;;;1.13;1.00;;;17.20;99.90;;;;;;5086041;28;20288;-83
2023/07/22 06:24:08;;;;;;;1.63;0.95;;;17.20;99.90;;;;;;5068891;28;20228;-83
2023/07/22 06:26:40;;;;;;;1.33;1.20;;;17.20;99.90;;;;;;5073079;28;20199;-83
2023/07/22 06:29:11;;;;;;;1.73;1.10;;;17.20;99.90;;;;;;5078084;28;20245;-84
2023/07/22 06:31:43;;;;;;;2.17;1.10;;;17.20;99.90;;;;;;5070574;28;20196;-81
2023/07/22 06:34:13;;;;;;;1.92;1.10;;;17.30;99.90;;;;;;5075277;28;20389;-83
2023/07/22 06:36:44;;;;;;;3.42;1.30;;;17.20;99.90;;;;;;5075622;28;20188;-83
2023/07/22 06:39:15;;;;;;;3.17;1.30;;;17.20;99.90;;;;;;5085918;28;20662;-83
2023/07/22 06:41:48;;;;;;;1.45;1.20;;;17.10;99.90;;;;;;5084997;28;20192;-83
2023/07/22 06:44:19;;;;;;;3.25;1.45;;;17.00;99.90;;;;;;5091761;28;20282;-82
2023/07/22 06:46:50;;;;;;;6.40;1.30;;;16.90;99.90;;;;;;5091985;28;20523;-85
2023/07/22 06:49:20;;;;;;;2.20;1.23;;;16.80;99.90;;;;;;5094152;28;20195;-84
2023/07/22 06:51:51;;;;;;;3.33;1.40;;;16.70;99.90;;;;;;5082175;28;20199;-84
2023/07/22 06:54:22;;;;;;;2.00;1.25;;;16.60;99.90;;;;;;5074395;28;20227;-82
2023/07/22 06:56:55;;;;;;;3.78;1.60;;;16.50;99.90;;;;;;5081540;28;20204;-83
2023/07/22 06:59:26;;;;;;;2.72;1.67;;;16.50;99.90;;;;;;5077204;28;20215;-84
2023/07/22 07:01:56;;;;;;;3.40;1.50;;;16.40;99.90;;;;;;5081256;28;20195;-83
2023/07/22 07:04:27;;;;;;;2.55;1.50;;;16.30;99.90;;;;;;5088119;28;20307;-83
2023/07/22 07:07:00;;;;;;;3.97;1.48;;;16.20;99.90;;;;;;5079941;28;20226;-82
2023/07/22 07:09:31;;;;;;;5.53;1.77;;;16.20;99.90;;;;;;5077976;28;20650;-84
2023/07/22 07:12:04;;;;;;;3.10;1.60;;;16.20;99.90;;;;;;5090801;28;20571;-84
2023/07/22 07:14:35;;;;;;;2.88;1.58;;;16.10;99.90;;;;;;5095205;28;20822;-83
2023/07/22 07:17:06;;;;;;;2.75;1.40;;;16.00;99.90;;;;;;5092799;28;20203;-83
2023/07/22 07:19:37;;;;;;;1.50;1.40;;;16.00;99.90;;;;;;5086562;28;20188;-83
2023/07/22 07:22:08;;;;;;;2.45;1.48;;;15.90;99.90;;;;;;5075874;28;20210;-84
2023/07/22 07:24:40;;;;;;;2.60;1.88;;;15.90;99.90;;;;;;5074347;28;20219;-82
2023/07/22 07:27:13;;;;;;;4.30;2.00;;;15.90;99.90;;;;;;5083952;28;20192;-80
2023/07/22 07:29:44;;;;;;;3.70;1.83;;;15.80;99.90;;;;;;5091350;28;20180;-81
2023/07/22 07:32:15;;;;;;;2.38;1.60;;;15.80;99.90;;;;;;5085571;28;20546;-83
2023/07/22 07:34:46;;;;;;;3.67;1.70;;;15.80;99.90;;;;;;5082214;28;20222;-82
2023/07/22 07:37:17;;;;;;;4.47;1.80;;;15.80;99.90;;;;;;5084463;28;20192;-81
2023/07/22 07:39:47;;;;;;;4.95;2.05;;;15.80;99.90;;;;;;5079018;27;20199;-83
2023/07/22 07:42:20;;;;;;;3.88;1.75;;;15.70;99.90;;;;;;5090783;28;20195;-83
2023/07/22 07:44:51;;;;;;;3.35;1.70;;;15.70;99.90;;;;;;5083541;28;20230;-83
2023/07/22 07:47:22;;;;;;;2.75;2.08;;;15.50;99.90;;;;;;5093795;28;20203;-83
2023/07/22 07:49:53;;;;;;;7.25;2.67;;;15.50;99.90;;;;;;5093808;28;20203;-83
2023/07/22 07:52:23;;;;;;;7.22;3.15;;;15.50;99.90;;;;;;5093613;28;20191;-82
2023/07/22 07:54:54;;;;;;;6.38;2.63;;;15.50;99.90;;;;;;5090712;28;20234;-82
2023/07/22 07:57:27;;;;;;;6.38;2.75;;;15.50;99.90;;;;;;5073522;28;20556;-83
2023/07/22 07:59:58;;;;;;;10.32;4.30;;;15.40;99.90;;;;;;5076084;28;20204;-82
2023/07/22 08:02:28;;;;;;;8.05;3.50;;;15.40;99.90;;;;;;5076291;28;20200;-84
2023/07/22 08:04:59;;;;;;;4.75;2.65;;;15.40;99.90;;;;;;5072966;28;20231;-83
2023/07/22 08:07:30;;;;;;;4.65;2.50;;;15.30;99.90;;;;;;5073127;28;20202;-84
2023/07/22 08:10:01;;;;;;;11.85;5.30;;;15.30;99.90;;;;;;5071983;28;20282;-83
2023/07/22 08:12:34;;;;;;;10.70;5.38;;;15.20;99.90;;;;;;5081212;28;20203;-83
2023/07/22 08:15:05;;;;;;;21.13;9.77;;;15.20;99.90;;;;;;5093401;28;20565;-83
2023/07/22 08:17:35;;;;;;;13.88;6.82;;;15.20;99.90;;;;;;5092226;28;20214;-84
2023/07/22 08:20:07;;;;;;;7.50;3.58;;;15.20;99.90;;;;;;5093043;28;20206;-83
2023/07/22 08:22:38;;;;;;;5.72;3.33;;;15.20;99.90;;;;;;5092839;28;20237;-83
2023/07/22 08:25:10;;;;;;;8.50;2.85;;;15.20;99.90;;;;;;5092682;28;20223;-83
2023/07/22 08:27:42;;;;;;;6.80;2.95;;;15.10;99.90;;;;;;5092841;28;20191;-83
2023/07/22 08:30:14;;;;;;;6.03;3.20;;;15.10;99.90;;;;;;5079161;28;20202;-83
2023/07/22 08:32:45;;;;;;;5.78;3.42;;;15.10;99.90;;;;;;5080783;28;20286;-83
2023/07/22 08:35:17;;;;;;;6.65;3.83;;;15.10;99.90;;;;;;5093061;28;20207;-82
2023/07/22 08:37:50;;;;;;;9.23;6.30;;;15.00;99.90;;;;;;5092250;28;20195;-82
2023/07/22 08:40:21;;;;;;;12.32;5.80;;;15.00;99.90;;;;;;5092694;28;20680;-82
2023/07/22 08:42:54;;;;;;;6.28;4.68;;;15.00;99.90;;;;;;5091399;28;20199;-84
2023/07/22 08:45:28;;;;;;;9.30;5.05;;;14.90;99.90;;;;;;5092774;28;20230;-84
2023/07/22 08:48:00;;;;;;;8.63;4.40;;;14.90;99.90;;;;;;5080071;28;20199;-84
2023/07/22 08:50:36;;;;;;;6.93;3.88;;;14.80;99.90;;;;;;5072021;28;20206;-83
2023/07/22 08:53:08;;;;;;;7.70;4.75;;;14.80;99.90;;;;;;5078996;28;20198;-83
2023/07/22 08:55:39;;;;;;;8.52;6.10;;;14.80;99.90;;;;;;5095705;28;20227;-85
2023/07/22 08:58:14;;;;;;;8.43;5.63;;;14.80;99.90;;;;;;5094475;28;20733;-86
2023/07/22 09:00:45;;;;;;;8.57;5.90;;;14.80;99.90;;;;;;5088237;28;20195;-86
2023/07/22 09:03:16;;;;;;;9.63;5.70;;;14.80;99.90;;;;;;5078184;28;20205;-86
2023/07/22 09:05:49;;;;;;;9.38;4.78;;;14.70;99.90;;;;;;5077798;28;20734;-85
2023/07/22 09:08:19;;;;;;;8.65;5.20;;;14.70;99.90;;;;;;5071939;28;20202;-85
2023/07/22 09:10:51;;;;;;;9.20;5.28;;;14.70;99.90;;;;;;5072312;28;20681;-85
2023/07/22 09:13:25;;;;;;;6.85;4.80;;;14.70;99.90;;;;;;5072073;28;20214;-84
2023/07/22 09:15:56;;;;;;;7.18;4.55;;;14.70;99.90;;;;;;5071722;28;20203;-84
2023/07/22 09:18:27;;;;;;;8.10;4.50;;;14.80;99.90;;;;;;5071556;28;20200;-84
2023/07/22 09:20:58;;;;;;;8.20;4.85;;;14.70;99.90;;;;;;5083093;28;20643;-84
2023/07/22 09:23:38;;;;;;;10.73;5.72;;;14.70;99.90;;;;;;5082092;28;20585;-84
2023/07/22 09:26:16;;;;;;;13.68;7.05;;;14.70;99.90;;;;;;5091598;28;20196;-84
2023/07/22 09:28:56;;;;;;;12.05;6.50;;;14.70;99.90;;;;;;5070884;28;20587;-85
2023/07/22 09:31:28;;;;;;;11.30;5.72;;;14.70;99.90;;;;;;5072159;28;20199;-84
2023/07/22 09:34:11;;;;;;;11.35;5.88;;;14.70;99.90;;;;;;5077159;28;20223;-83
2023/07/22 09:36:54;;;;;;;10.50;5.60;;;14.70;99.90;;;;;;5090248;28;20191;-83
2023/07/22 09:39:25;;;;;;;10.27;5.63;;;14.70;99.90;;;;;;5091228;28;20282;-84
2023/07/22 09:41:56;;;;;;;10.45;5.85;;;14.60;99.90;;;;;;5091644;28;20195;-85
2023/07/22 09:44:34;;;;;;;11.05;5.85;;;14.60;99.90;;;;;;5091591;28;20592;-85
2023/07/22 09:47:10;;;;;;;9.80;6.05;;;14.60;99.90;;;;;;5091225;28;20199;-83
2023/07/22 09:49:44;;;;;;;12.55;8.07;;;14.60;99.90;;;;;;5088039;28;20194;-84
2023/07/22 09:52:15;;;;;;;17.13;11.65;;;14.50;99.90;;;;;;5072152;28;20183;-87
2023/07/22 09:54:52;;;;;;;14.73;11.40;;;14.50;99.90;;;;;;5081290;28;20288;-84
2023/07/22 09:57:25;;;;;;;13.43;9.45;;;14.50;99.90;;;;;;5073860;28;20252;-84
2023/07/22 09:59:58;;;;;;;11.23;7.93;;;14.50;99.90;;;;;;5073662;28;20205;-83
2023/07/22 10:02:35;;;;;;;12.15;8.10;;;14.50;99.90;;;;;;5090723;28;20286;-84
2023/07/22 10:05:07;;;;;;;11.90;7.47;;;14.40;99.90;;;;;;5090893;28;20284;-84
2023/07/22 10:07:39;;;;;;;12.05;7.47;;;14.40;99.90;;;;;;5089924;28;20654;-85
2023/07/22 10:10:10;;;;;;;9.30;5.68;;;14.40;99.90;;;;;;5070745;28;20265;-84
2023/07/22 10:12:43;;;;;;;10.00;5.78;;;14.40;99.90;;;;;;5071711;28;20238;-84
2023/07/22 10:15:18;;;;;;;10.38;5.68;;;14.40;99.90;;;;;;5076984;28;20238;-86
2023/07/22 10:17:49;;;;;;;9.63;6.70;;;14.30;99.90;;;;;;5084423;28;20654;-85
2023/07/22 10:20:21;;;;;;;10.90;5.80;;;14.40;99.90;;;;;;5090366;28;20194;-84
2023/07/22 10:22:52;;;;;;;11.02;8.48;;;14.30;99.90;;;;;;5090942;28;20205;-84
2023/07/22 10:25:24;;;;;;;14.20;10.52;;;14.20;99.90;;;;;;5090493;28;20219;-84
2023/07/22 10:27:55;;;;;;;14.32;10.00;;;14.10;99.90;;;;;;5086588;28;20206;-83
2023/07/22 10:30:28;;;;;;;15.68;10.45;;;14.10;99.90;;;;;;5070864;28;20211;-83
2023/07/22 10:32:59;;;;;;;14.85;9.85;;;14.20;99.90;;;;;;5077340;28;20214;-83
2023/07/22 10:35:44;;;;;;;15.25;9.55;;;14.10;99.90;;;;;;5081758;28;20192;-83
2023/07/22 10:38:16;;;;;;;15.20;9.43;;;14.10;99.90;;;;;;5091766;28;20195;-83
2023/07/22 10:40:52;;;;;;;17.45;10.27;;;14.10;99.90;;;;;;5071026;28;20393;-84
2023/07/22 10:43:27;;;;;;;10.82;7.82;;;14.00;99.90;;;;;;5090163;28;20199;-83
2023/07/22 10:46:00;;;;;;;10.10;7.10;;;14.00;99.90;;;;;;5089688;28;20202;-85
2023/07/22 10:48:37;;;;;;;10.65;7.65;;;14.00;99.90;;;;;;5086035;28;20206;-83
2023/07/22 10:51:10;;;;;;;12.02;7.55;;;14.00;99.90;;;;;;5076698;28;20729;-83
2023/07/22 10:53:45;;;;;;;11.25;7.78;;;14.10;99.90;;;;;;5073631;28;20659;-84
2023/07/22 10:56:17;;;;;;;11.07;7.15;;;14.10;99.90;;;;;;5090506;28;20739;-83
2023/07/22 10:59:03;;;;;;;12.85;7.93;;;14.10;99.90;;;;;;5087730;28;20198;-84
2023/07/22 11:01:40;;;;;;;11.18;8.45;;;14.10;99.90;;;;;;5070528;28;20211;-85
2023/07/22 11:04:16;;;;;;;11.65;7.43;;;14.10;99.90;;;;;;5070620;28;20227;-84
2023/07/22 11:06:57;;;;;;;9.57;6.90;;;14.00;99.90;;;;;;5069464;28;20202;-84
2023/07/22 11:09:43;;;;;;;9.85;6.32;;;14.00;99.90;;;;;;5079921;28;20282;-85
2023/07/22 11:12:17;;;;;;;9.55;6.40;;;13.90;99.90;;;;;;5090535;28;20195;-85
2023/07/22 11:14:51;;;;;;;8.15;6.18;;;13.80;99.90;;;;;;5090254;28;20210;-84
2023/07/22 11:17:32;;;;;;;8.13;5.85;;;13.80;99.90;;;;;;5081197;28;20197;-84
2023/07/22 11:20:03;;;;;;;10.35;6.57;;;13.70;99.90;;;;;;5070534;28;20199;-84
2023/07/22 11:22:34;;;;;;;11.38;5.75;;;13.60;99.90;;;;;;5070116;28;20196;-85
2023/07/22 11:25:05;;;;;;;9.82;6.15;;;13.70;99.90;;;;;;5069888;28;20319;-84
2023/07/22 11:27:36;;;;;;;10.52;6.40;;;13.60;99.90;;;;;;5086919;28;20204;-84
2023/07/22 11:30:07;;;;;;;8.82;6.75;;;13.60;99.90;;;;;;5089124;28;20222;-82
2023/07/22 11:32:46;;;;;;;8.93;7.00;;;13.60;99.90;;;;;;5086420;28;20232;-84
2023/07/22 11:35:19;;;;;;;8.95;6.13;;;13.60;99.90;;;;;;5101135;28;20615;-84
2023/07/22 11:37:50;;;;;;;10.23;6.00;;;13.50;99.90;;;;;;5089991;28;20206;-85
2023/07/22 11:40:21;;;;;;;9.60;6.13;;;13.50;99.90;;;;;;5070126;28;20200;-84
2023/07/22 11:42:52;;;;;;;8.38;6.07;;;13.60;99.90;;;;;;5072492;28;20223;-84
2023/07/22 11:45:22;;;;;;;9.27;6.82;;;13.50;99.90;;;;;;5084084;28;20223;-84
2023/07/22 11:47:55;;;;;;;10.82;6.28;;;13.50;99.90;;;;;;5080360;28;20199;-85
2023/07/22 11:50:35;;;;;;;10.32;6.80;;;13.50;99.90;;;;;;5101116;28;20217;-84
2023/07/22 11:53:06;;;;;;;10.57;6.88;;;13.50;99.90;;;;;;5076891;28;20194;-85
2023/07/22 11:55:39;;;;;;;10.25;6.85;;;13.50;99.90;;;;;;5081632;28;20603;-85
2023/07/22 11:58:10;;;;;;;11.45;6.88;;;13.50;99.90;;;;;;5093490;28;20201;-85
2023/07/22 12:00:44;;;;;;;8.52;6.40;;;13.40;99.90;;;;;;5086429;28;20283;-84
2023/07/22 12:03:18;;;;;;;10.98;7.30;;;13.40;99.90;;;;;;5109725;28;20201;-85
2023/07/22 12:05:49;;;;;;;11.48;7.63;;;13.40;99.90;;;;;;5105622;28;20712;-84
2023/07/22 12:08:20;;;;;;;11.90;7.05;;;13.30;99.90;;;;;;5091006;28;20198;-84
2023/07/22 12:11:00;;;;;;;13.73;7.68;;;13.30;99.90;;;;;;5085270;28;20196;-84
2023/07/22 12:13:31;;;;;;;11.82;7.28;;;13.20;99.90;;;;;;5087439;28;20195;-83
2023/07/22 12:16:06;;;;;;;9.48;6.80;;;13.20;99.90;;;;;;5090740;28;20184;-85
2023/07/22 12:18:47;;;;;;;9.60;6.32;;;13.20;99.90;;;;;;5077465;28;20207;-86
2023/07/22 12:21:21;;;;;;;9.18;6.63;;;13.30;99.90;;;;;;5078183;28;20206;-85
2023/07/22 12:23:52;;;;;;;11.60;6.15;;;13.30;99.90;;;;;;5088012;28;20215;-86
2023/07/22 12:26:23;;;;;;;9.82;6.45;;;13.40;99.90;;;;;;5084908;28;20223;-84
2023/07/22 12:28:54;;;;;;;11.02;6.90;;;13.30;99.90;;;;;;5079580;28;20677;-85
2023/07/22 12:31:25;;;;;;;11.38;6.78;;;13.30;99.90;;;;;;5079973;28;20194;-86
2023/07/22 12:33:58;;;;;;;10.05;6.70;;;13.30;99.90;;;;;;5077745;28;20647;-83
2023/07/22 12:36:28;;;;;;;10.98;6.60;;;13.30;99.90;;;;;;5081531;28;20571;-85
2023/07/22 12:38:59;;;;;;;10.98;6.55;;;13.30;99.90;;;;;;5101415;28;20242;-86
2023/07/22 12:41:30;;;;;;;9.75;6.45;;;13.30;99.90;;;;;;5077580;28;20198;-85
2023/07/22 12:44:01;;;;;;;12.13;6.97;;;13.30;99.90;;;;;;5080531;28;20187;-87
2023/07/22 12:46:34;;;;;;;9.90;6.70;;;13.30;99.90;;;;;;5094636;28;20223;-86
2023/07/22 12:49:07;;;;;;;12.02;7.07;;;13.30;99.90;;;;;;5095185;28;20203;-86
2023/07/22 12:51:38;;;;;;;11.80;7.13;;;13.20;99.90;;;;;;5091048;28;20214;-85
2023/07/22 12:54:09;;;;;;;9.98;7.07;;;13.20;99.90;;;;;;5097252;28;20246;-85
2023/07/22 12:56:39;;;;;;;10.50;7.30;;;13.20;99.90;;;;;;5078645;28;20198;-86
2023/07/22 12:59:10;;;;;;;11.05;6.90;;;13.20;99.90;;;;;;5081098;28;20680;-86
2023/07/22 13:01:42;;;;;;;9.80;7.40;;;13.10;99.90;;;;;;5092500;28;20219;-85
2023/07/22 13:04:15;;;;;;;11.50;7.78;;;13.00;99.90;;;;;;5102181;28;20572;-86
2023/07/22 13:06:46;;;;;;;13.43;7.00;;;13.00;99.90;;;;;;5103301;28;20195;-86
2023/07/22 13:09:17;;;;;;;10.52;6.95;;;13.00;99.90;;;;;;5110058;28;20241;-86